createdAt,value
2019-02-27T00:01:16.924Z,7.50
2019-02-27T00:03:46.196Z,7.09
2019-02-27T00:06:15.926Z,7.05
2019-02-27T00:08:42.780Z,6.95
2019-02-27T00:11:12.236Z,6.90
2019-02-27T00:13:39.004Z,6.96
2019-02-27T00:16:10.884Z,7.06
2019-02-27T00:18:36.606Z,6.79
2019-02-27T00:21:05.081Z,6.84
2019-02-27T00:23:33.050Z,6.78
2019-02-27T00:26:00.196Z,6.83
2019-02-27T00:28:27.231Z,7.31
2019-02-27T00:30:54.650Z,7.01
2019-02-27T00:33:25.051Z,7.02
2019-02-27T00:35:51.308Z,7.25
2019-02-27T00:38:18.865Z,7.49
2019-02-27T00:40:45.898Z,7.34
2019-02-27T00:43:13.673Z,7.31
2019-02-27T00:45:41.195Z,7.59
2019-02-27T00:48:09.718Z,7.47
2019-02-27T00:50:38.915Z,7.35
2019-02-27T00:53:06.174Z,7.32
2019-02-27T00:55:38.640Z,7.07
2019-02-27T00:58:03.645Z,6.76
2019-02-27T01:00:32.127Z,6.58
2019-02-27T01:02:59.886Z,6.73
2019-02-27T01:05:27.243Z,6.69
2019-02-27T01:07:54.745Z,6.50
2019-02-27T01:10:23.485Z,6.41
2019-02-27T01:12:51.965Z,6.70
2019-02-27T01:15:21.061Z,6.93
2019-02-27T01:17:48.726Z,6.39
2019-02-27T01:20:16.182Z,6.40
2019-02-27T01:22:43.639Z,6.61
2019-02-27T01:25:11.297Z,6.50
2019-02-27T01:27:38.972Z,6.21
2019-02-27T01:30:07.441Z,6.81
2019-02-27T01:32:34.901Z,7.14
2019-02-27T01:35:01.998Z,7.18
2019-02-27T01:37:31.688Z,6.90
2019-02-27T01:39:58.542Z,6.86
2019-02-27T01:42:31.969Z,7.38
2019-02-27T01:44:57.324Z,6.52
2019-02-27T01:47:26.498Z,7.26
2019-02-27T01:49:54.161Z,7.41
2019-02-27T01:52:21.231Z,7.45
2019-02-27T01:54:49.791Z,6.96
2019-02-27T01:57:17.187Z,6.38
2019-02-27T01:59:44.501Z,7.21
2019-02-27T02:02:11.670Z,6.84
2019-02-27T02:04:40.139Z,6.89
2019-02-27T02:07:08.610Z,6.66
2019-02-27T02:09:37.763Z,6.37
2019-02-27T02:12:17.236Z,6.38
2019-02-27T02:15:09.905Z,6.60
2019-02-27T02:18:27.999Z,6.38
2019-02-27T02:21:18.023Z,6.37
2019-02-27T02:24:26.447Z,6.23
2019-02-27T02:27:20.854Z,6.47
2019-02-27T02:30:12.871Z,6.75
2019-02-27T02:32:53.405Z,6.86
2019-02-27T02:35:53.662Z,7.40
2019-02-27T02:39:09.038Z,7.12
2019-02-27T02:42:24.345Z,6.93
2019-02-27T02:45:49.425Z,5.96
2019-02-27T02:48:35.724Z,6.94
2019-02-27T02:51:46.188Z,6.39
2019-02-27T02:54:48.406Z,6.41
2019-02-27T02:57:36.236Z,7.27
2019-02-27T03:00:29.197Z,7.13
2019-02-27T03:03:28.967Z,7.32
2019-02-27T03:06:38.623Z,6.80
2019-02-27T03:09:12.718Z,6.80
2019-02-27T03:12:29.826Z,6.49
2019-02-27T03:15:19.770Z,6.45
2019-02-27T03:18:04.697Z,6.83
2019-02-27T03:21:07.987Z,6.49
2019-02-27T03:24:00.570Z,5.66
2019-02-27T03:27:11.712Z,5.94
2019-02-27T03:30:21.138Z,6.41
2019-02-27T03:33:28.564Z,6.12
2019-02-27T03:36:35.821Z,5.80
2019-02-27T03:39:23.055Z,6.17
2019-02-27T03:42:30.920Z,6.04
2019-02-27T03:45:30.715Z,6.01
2019-02-27T03:48:44.180Z,6.05
2019-02-27T03:51:24.706Z,6.19
2019-02-27T03:54:21.306Z,6.04
2019-02-27T03:57:21.417Z,5.83
2019-02-27T04:00:23.688Z,6.17
2019-02-27T04:03:17.137Z,6.09
2019-02-27T04:06:21.329Z,6.08
2019-02-27T04:08:53.905Z,6.13
2019-02-27T04:11:21.224Z,5.94
2019-02-27T04:13:48.277Z,6.21
2019-02-27T04:16:15.317Z,6.25
2019-02-27T04:18:43.017Z,5.94
2019-02-27T04:21:10.033Z,6.24
2019-02-27T04:23:37.094Z,6.72
2019-02-27T04:26:05.771Z,6.70
2019-02-27T04:28:33.068Z,6.49
2019-02-27T04:31:00.391Z,6.20
2019-02-27T04:33:29.222Z,6.36
2019-02-27T04:35:56.265Z,6.08
2019-02-27T04:38:25.094Z,6.09
2019-02-27T04:40:52.234Z,5.98
2019-02-27T04:43:19.245Z,6.09
2019-02-27T04:45:46.883Z,5.86
2019-02-27T04:48:15.669Z,6.15
2019-02-27T04:50:44.170Z,5.90
2019-02-27T04:53:11.596Z,6.35
2019-02-27T04:55:38.632Z,6.53
2019-02-27T04:58:08.833Z,6.07
2019-02-27T05:00:34.896Z,5.87
2019-02-27T05:03:01.902Z,5.87
2019-02-27T05:05:28.930Z,5.91
2019-02-27T05:07:55.937Z,5.84
2019-02-27T05:10:23.369Z,5.73
2019-02-27T05:12:51.433Z,5.92
2019-02-27T05:15:18.734Z,5.79
2019-02-27T05:17:46.579Z,5.76
2019-02-27T05:20:14.323Z,5.85
2019-02-27T05:22:46.695Z,5.91
2019-02-27T05:25:15.049Z,6.01
2019-02-27T05:27:43.352Z,5.85
2019-02-27T05:30:12.323Z,5.83
2019-02-27T05:32:40.031Z,5.76
2019-02-27T05:35:07.200Z,5.89
2019-02-27T05:37:36.093Z,5.73
2019-02-27T05:40:03.651Z,5.87
2019-02-27T05:42:30.846Z,5.50
2019-02-27T05:44:57.931Z,5.91
2019-02-27T05:47:25.066Z,6.55
2019-02-27T05:49:52.147Z,6.41
2019-02-27T05:52:19.238Z,6.25
2019-02-27T05:54:46.423Z,6.19
2019-02-27T05:57:15.324Z,6.09
2019-02-27T05:59:42.420Z,5.70
2019-02-27T06:02:10.990Z,6.03
2019-02-27T06:04:38.698Z,5.87
2019-02-27T06:07:06.345Z,5.84
2019-02-27T06:09:35.128Z,6.04
2019-02-27T06:12:06.524Z,6.22
2019-02-27T06:14:33.333Z,6.11
2019-02-27T06:17:01.086Z,6.07
2019-02-27T06:19:30.577Z,5.95
2019-02-27T06:21:57.836Z,6.03
2019-02-27T06:24:25.294Z,6.43
2019-02-27T06:26:52.443Z,6.38
2019-02-27T06:29:23.294Z,6.40
2019-02-27T06:31:49.710Z,6.05
2019-02-27T06:34:16.875Z,6.27
2019-02-27T06:36:44.624Z,6.34
2019-02-27T06:39:12.418Z,6.62
2019-02-27T06:41:39.993Z,6.24
2019-02-27T06:44:08.306Z,6.78
2019-02-27T06:46:35.431Z,6.69
2019-02-27T06:49:03.599Z,6.59
2019-02-27T06:51:30.711Z,6.79
2019-02-27T06:53:57.865Z,6.51
2019-02-27T06:56:24.978Z,6.51
2019-02-27T06:58:52.445Z,6.73
2019-02-27T07:01:19.530Z,7.02
2019-02-27T07:03:47.367Z,7.08
2019-02-27T07:06:14.780Z,7.15
2019-02-27T07:08:42.180Z,6.95
2019-02-27T07:11:11.265Z,7.13
2019-02-27T07:13:38.636Z,7.12
2019-02-27T07:16:06.091Z,7.01
2019-02-27T07:18:36.434Z,7.43
2019-02-27T07:21:03.969Z,7.62
2019-02-27T07:23:31.301Z,7.41
2019-02-27T07:25:59.324Z,7.66
2019-02-27T07:28:26.397Z,7.80
2019-02-27T07:30:53.854Z,7.49
2019-02-27T07:33:22.351Z,7.82
2019-02-27T07:35:49.708Z,7.72
2019-02-27T07:38:21.400Z,7.83
2019-02-27T07:40:46.085Z,7.89
2019-02-27T07:43:14.159Z,8.22
2019-02-27T07:45:45.023Z,8.40
2019-02-27T07:48:11.937Z,8.24
2019-02-27T07:50:40.522Z,8.65
2019-02-27T07:53:07.956Z,8.62
2019-02-27T07:55:35.332Z,8.62
2019-02-27T07:58:02.451Z,8.93
2019-02-27T08:00:29.522Z,9.06
2019-02-27T08:02:56.679Z,9.34
2019-02-27T08:05:28.265Z,9.73
2019-02-27T08:07:53.594Z,9.57
2019-02-27T08:10:20.717Z,9.57
2019-02-27T08:12:48.098Z,9.36
2019-02-27T08:15:16.038Z,9.90
2019-02-27T08:17:43.968Z,10.21
2019-02-27T08:20:12.841Z,10.27
2019-02-27T08:22:39.903Z,9.95
2019-02-27T08:25:08.407Z,10.37
2019-02-27T08:27:35.851Z,10.55
2019-02-27T08:30:04.340Z,10.56
2019-02-27T08:32:34.586Z,10.56
2019-02-27T08:35:02.052Z,10.55
2019-02-27T08:37:30.145Z,11.10
2019-02-27T08:39:57.261Z,11.10
2019-02-27T08:42:24.312Z,10.88
2019-02-27T08:44:51.389Z,11.17
2019-02-27T08:47:18.587Z,11.41
2019-02-27T08:49:45.641Z,11.32
2019-02-27T08:52:16.249Z,11.47
2019-02-27T08:54:43.465Z,11.69
2019-02-27T08:57:10.997Z,11.89
2019-02-27T08:59:39.872Z,12.30
2019-02-27T09:02:08.747Z,12.37
2019-02-27T09:04:36.934Z,12.48
2019-02-27T09:07:04.022Z,12.54
2019-02-27T09:09:31.102Z,12.61
2019-02-27T09:11:58.298Z,12.61
2019-02-27T09:14:25.492Z,12.60
2019-02-27T09:16:52.560Z,12.71
2019-02-27T09:19:20.768Z,13.00
2019-02-27T09:21:49.422Z,12.80
2019-02-27T09:24:16.855Z,13.02
2019-02-27T09:26:44.852Z,13.10
2019-02-27T09:29:13.377Z,13.33
2019-02-27T09:31:50.271Z,13.69
2019-02-27T09:34:09.701Z,13.88
2019-02-27T09:36:36.705Z,14.08
2019-02-27T09:39:05.943Z,14.24
2019-02-27T09:41:34.399Z,14.16
2019-02-27T09:44:02.675Z,14.41
2019-02-27T09:46:29.792Z,14.46
2019-02-27T09:48:57.176Z,14.31
2019-02-27T09:51:24.332Z,14.47
2019-02-27T09:53:51.697Z,14.67
2019-02-27T09:56:19.085Z,14.85
2019-02-27T09:58:47.357Z,15.12
2019-02-27T10:01:16.350Z,14.71
2019-02-27T10:03:43.374Z,15.17
2019-02-27T10:06:10.434Z,15.11
2019-02-27T10:08:37.774Z,15.17
2019-02-27T10:11:05.111Z,15.41
2019-02-27T10:13:35.480Z,15.56
2019-02-27T10:16:03.668Z,15.38
2019-02-27T10:18:31.787Z,15.32
2019-02-27T10:20:59.029Z,15.44
2019-02-27T10:23:30.454Z,15.53
2019-02-27T10:25:55.574Z,14.95
2019-02-27T10:28:22.686Z,15.52
2019-02-27T10:30:50.942Z,15.60
2019-02-27T10:33:18.391Z,15.92
2019-02-27T10:35:45.593Z,15.71
2019-02-27T10:38:12.679Z,15.76
2019-02-27T10:40:40.534Z,15.74
2019-02-27T10:43:08.711Z,15.74
2019-02-27T10:45:36.140Z,16.05
2019-02-27T10:48:03.216Z,16.28
2019-02-27T10:50:30.411Z,16.49
2019-02-27T10:52:57.502Z,16.00
2019-02-27T10:55:26.698Z,16.08
2019-02-27T10:57:54.071Z,16.09
2019-02-27T11:00:28.342Z,16.58
2019-02-27T11:02:55.501Z,16.56
2019-02-27T11:05:24.527Z,16.31
2019-02-27T11:07:52.972Z,16.15
2019-02-27T11:10:21.925Z,16.43
2019-02-27T11:12:49.307Z,16.25
2019-02-27T11:15:16.722Z,16.22
2019-02-27T11:17:43.890Z,16.82
2019-02-27T11:20:11.176Z,16.91
2019-02-27T11:22:38.457Z,16.55
2019-02-27T11:25:08.066Z,16.88
2019-02-27T11:27:36.327Z,17.10
2019-02-27T11:30:05.453Z,16.48
2019-02-27T11:32:35.490Z,16.37
2019-02-27T11:35:02.867Z,16.43
2019-02-27T11:37:30.798Z,16.70
2019-02-27T11:39:57.865Z,16.72
2019-02-27T11:42:25.696Z,16.62
2019-02-27T11:44:53.102Z,16.35
2019-02-27T11:47:20.181Z,16.44
2019-02-27T11:49:47.565Z,17.18
2019-02-27T11:52:14.625Z,16.82
2019-02-27T11:54:43.811Z,17.10
2019-02-27T11:57:12.893Z,16.60
2019-02-27T11:59:39.942Z,16.50
2019-02-27T12:02:07.525Z,16.71
2019-02-27T12:04:34.582Z,16.50
2019-02-27T12:07:01.764Z,16.25
2019-02-27T12:09:28.810Z,16.73
2019-02-27T12:11:55.878Z,16.47
2019-02-27T12:14:23.052Z,16.29
2019-02-27T12:16:52.488Z,16.83
2019-02-27T12:19:19.798Z,16.76
2019-02-27T12:21:47.155Z,16.58
2019-02-27T12:24:16.338Z,16.80
2019-02-27T12:26:43.482Z,16.67
2019-02-27T12:29:10.539Z,17.00
2019-02-27T12:31:37.630Z,16.96
2019-02-27T12:34:05.173Z,16.71
2019-02-27T12:36:32.280Z,16.56
2019-02-27T12:38:59.339Z,16.40
2019-02-27T12:41:26.776Z,16.41
2019-02-27T12:43:53.874Z,16.26
2019-02-27T12:46:20.979Z,17.15
2019-02-27T12:48:48.078Z,17.23
2019-02-27T12:51:15.135Z,16.83
2019-02-27T12:53:42.490Z,16.92
2019-02-27T12:56:10.013Z,16.97
2019-02-27T12:58:37.233Z,16.98
2019-02-27T13:01:05.442Z,17.07
2019-02-27T13:03:32.500Z,17.05
2019-02-27T13:06:00.942Z,17.19
2019-02-27T13:08:28.723Z,17.09
2019-02-27T13:10:56.547Z,16.93
2019-02-27T13:13:25.949Z,16.93
2019-02-27T13:15:52.652Z,16.99
2019-02-27T13:18:19.716Z,17.34
2019-02-27T13:20:46.805Z,16.87
2019-02-27T13:23:13.868Z,17.19
2019-02-27T13:25:40.938Z,17.31
2019-02-27T13:28:08.697Z,17.81
2019-02-27T13:30:36.046Z,17.85
2019-02-27T13:33:03.506Z,18.87
2019-02-27T13:35:31.371Z,18.89
2019-02-27T13:37:58.982Z,18.70
2019-02-27T13:40:26.486Z,19.90
2019-02-27T13:42:53.986Z,20.30
2019-02-27T13:45:22.819Z,19.99
2019-02-27T13:47:50.601Z,18.64
2019-02-27T13:50:22.405Z,18.31
2019-02-27T13:52:49.783Z,18.07
2019-02-27T13:55:16.546Z,18.25
2019-02-27T13:57:44.421Z,18.18
2019-02-27T14:00:20.404Z,18.57
2019-02-27T14:02:46.351Z,18.39
2019-02-27T14:05:14.366Z,18.11
2019-02-27T14:07:42.130Z,17.91
2019-02-27T14:10:10.793Z,18.09
2019-02-27T14:12:38.586Z,18.98
2019-02-27T14:15:07.156Z,19.27
2019-02-27T14:17:36.223Z,18.10
2019-02-27T14:20:05.332Z,18.07
2019-02-27T14:22:33.431Z,18.25
2019-02-27T14:25:01.186Z,18.80
2019-02-27T14:27:29.671Z,18.45
2019-02-27T14:29:57.092Z,18.29
2019-02-27T14:32:24.327Z,18.91
2019-02-27T14:34:51.555Z,19.15
2019-02-27T14:37:19.382Z,19.34
2019-02-27T14:39:46.945Z,18.35
2019-02-27T14:42:14.309Z,18.89
2019-02-27T14:44:42.397Z,19.78
2019-02-27T14:47:09.596Z,19.55
2019-02-27T14:49:37.090Z,19.44
2019-02-27T14:52:04.444Z,18.69
2019-02-27T14:54:32.617Z,19.18
2019-02-27T14:57:00.277Z,19.64
2019-02-27T14:59:30.500Z,19.37
2019-02-27T15:01:58.377Z,20.14
2019-02-27T15:04:25.462Z,19.71
2019-02-27T15:06:52.769Z,18.78
2019-02-27T15:09:21.377Z,18.63
2019-02-27T15:11:50.855Z,18.78
2019-02-27T15:14:19.145Z,18.96
2019-02-27T15:16:49.874Z,19.06
2019-02-27T15:19:18.945Z,18.50
2019-02-27T15:21:47.317Z,18.77
2019-02-27T15:24:15.678Z,17.74
2019-02-27T15:26:45.444Z,18.16
2019-02-27T15:29:12.683Z,18.14
2019-02-27T15:31:40.650Z,18.33
2019-02-27T15:34:11.971Z,18.61
2019-02-27T15:36:37.242Z,18.60
2019-02-27T15:39:06.357Z,17.91
2019-02-27T15:41:35.972Z,18.35
2019-02-27T15:44:04.200Z,20.24
2019-02-27T15:46:31.419Z,19.31
2019-02-27T15:49:00.392Z,19.39
2019-02-27T15:51:28.523Z,19.07
2019-02-27T15:53:56.842Z,19.38
2019-02-27T15:56:24.611Z,19.80
2019-02-27T15:58:52.095Z,19.00
2019-02-27T16:01:19.654Z,18.19
2019-02-27T16:03:47.158Z,17.85
2019-02-27T16:06:14.646Z,17.55
2019-02-27T16:08:42.061Z,17.04
2019-02-27T16:11:10.200Z,16.84
2019-02-27T16:13:38.260Z,16.68
2019-02-27T16:16:05.337Z,16.41
2019-02-27T16:18:33.864Z,16.38
2019-02-27T16:21:01.911Z,16.12
2019-02-27T16:23:31.553Z,16.10
2019-02-27T16:25:58.627Z,15.80
2019-02-27T16:28:26.016Z,15.72
2019-02-27T16:30:53.748Z,15.63
2019-02-27T16:33:24.062Z,15.63
2019-02-27T16:35:50.706Z,15.61
2019-02-27T16:38:18.197Z,15.46
2019-02-27T16:40:45.270Z,15.30
2019-02-27T16:43:14.326Z,15.30
2019-02-27T16:45:44.127Z,15.22
2019-02-27T16:48:11.530Z,15.18
2019-02-27T16:50:39.345Z,15.13
2019-02-27T16:53:07.079Z,14.93
2019-02-27T16:55:37.459Z,14.78
2019-02-27T16:58:07.755Z,14.78
2019-02-27T17:00:35.446Z,14.55
2019-02-27T17:03:02.971Z,14.47
2019-02-27T17:05:32.025Z,14.32
2019-02-27T17:08:02.000Z,14.33
2019-02-27T17:10:29.585Z,14.41
2019-02-27T17:12:57.308Z,14.19
2019-02-27T17:15:24.713Z,13.95
2019-02-27T17:17:53.931Z,14.07
2019-02-27T17:20:24.085Z,14.03
2019-02-27T17:22:52.250Z,13.90
2019-02-27T17:25:19.319Z,13.87
2019-02-27T17:27:49.913Z,13.80
2019-02-27T17:30:20.461Z,13.60
2019-02-27T17:32:47.741Z,13.68
2019-02-27T17:35:14.859Z,13.76
2019-02-27T17:37:42.270Z,13.66
2019-02-27T17:40:09.867Z,13.74
2019-02-27T17:42:39.051Z,13.73
2019-02-27T17:45:10.054Z,13.43
2019-02-27T17:47:38.014Z,13.46
2019-02-27T17:50:05.850Z,13.33
2019-02-27T17:52:36.292Z,13.43
2019-02-27T17:55:06.853Z,13.30
2019-02-27T17:57:35.826Z,13.07
2019-02-27T18:00:06.232Z,13.22
2019-02-27T18:02:35.632Z,13.09
2019-02-27T18:05:03.508Z,13.11
2019-02-27T18:07:34.526Z,13.19
2019-02-27T18:10:02.393Z,13.22
2019-02-27T18:12:30.700Z,13.15
2019-02-27T18:14:57.904Z,13.07
2019-02-27T18:17:25.998Z,13.02
2019-02-27T18:19:55.221Z,12.96
2019-02-27T18:22:24.400Z,12.95
2019-02-27T18:24:57.228Z,12.84
2019-02-27T18:27:25.447Z,12.84
2019-02-27T18:29:53.882Z,12.90
2019-02-27T18:32:22.515Z,12.88
2019-02-27T18:34:54.394Z,12.74
2019-02-27T18:37:19.790Z,12.57
2019-02-27T18:39:46.908Z,12.56
2019-02-27T18:42:14.015Z,12.54
2019-02-27T18:44:43.302Z,12.58
2019-02-27T18:47:12.820Z,12.63
2019-02-27T18:49:44.852Z,12.55
2019-02-27T18:52:21.049Z,12.55
2019-02-27T18:54:43.656Z,12.47
2019-02-27T18:57:12.150Z,12.28
2019-02-27T18:59:40.718Z,12.49
2019-02-27T19:02:07.919Z,12.49
2019-02-27T19:04:35.927Z,12.42
2019-02-27T19:07:03.990Z,12.35
2019-02-27T19:09:34.348Z,12.33
2019-02-27T19:12:01.947Z,12.40
2019-02-27T19:14:30.281Z,12.14
2019-02-27T19:16:58.049Z,12.09
2019-02-27T19:19:26.318Z,12.11
2019-02-27T19:21:53.411Z,12.22
2019-02-27T19:24:26.514Z,12.04
2019-02-27T19:26:49.600Z,12.03
2019-02-27T19:29:16.674Z,12.07
2019-02-27T19:31:43.780Z,11.81
2019-02-27T19:34:10.937Z,11.86
2019-02-27T19:36:38.022Z,11.74
2019-02-27T19:39:06.528Z,11.81
2019-02-27T19:41:39.528Z,11.71
2019-02-27T19:44:05.299Z,11.80
2019-02-27T19:46:32.746Z,11.82
2019-02-27T19:49:00.890Z,11.67
2019-02-27T19:51:28.825Z,11.68
2019-02-27T19:53:55.918Z,11.52
2019-02-27T19:56:24.370Z,11.48
2019-02-27T19:58:52.639Z,11.50
2019-02-27T20:01:20.138Z,11.33
2019-02-27T20:03:47.195Z,11.38
2019-02-27T20:06:14.652Z,11.16
2019-02-27T20:08:45.325Z,11.43
2019-02-27T20:11:11.681Z,11.39
2019-02-27T20:13:38.839Z,11.28
2019-02-27T20:16:06.352Z,11.36
2019-02-27T20:18:33.583Z,11.30
2019-02-27T20:21:02.565Z,11.10
2019-02-27T20:23:29.670Z,11.19
2019-02-27T20:25:56.747Z,11.16
2019-02-27T20:28:23.867Z,11.12
2019-02-27T20:30:52.740Z,11.12
2019-02-27T20:33:22.269Z,11.17
2019-02-27T20:35:52.286Z,10.91
2019-02-27T20:38:20.192Z,10.91
2019-02-27T20:40:47.240Z,11.10
2019-02-27T20:43:14.492Z,10.90
2019-02-27T20:45:42.982Z,10.90
2019-02-27T20:48:10.561Z,10.94
2019-02-27T20:50:39.967Z,10.94
2019-02-27T20:53:08.002Z,10.78
2019-02-27T20:55:35.661Z,10.78
2019-02-27T20:58:03.172Z,10.78
2019-02-27T21:00:36.133Z,10.69
2019-02-27T21:03:02.599Z,10.69
2019-02-27T21:05:30.958Z,10.79
2019-02-27T21:08:02.065Z,10.82
2019-02-27T21:10:28.725Z,10.76
2019-02-27T21:12:56.130Z,10.76
2019-02-27T21:15:24.861Z,10.75
2019-02-27T21:17:52.503Z,10.55
2019-02-27T21:20:19.586Z,10.34
2019-02-27T21:22:47.211Z,10.29
2019-02-27T21:25:15.677Z,10.29
2019-02-27T21:27:43.307Z,10.31
2019-02-27T21:30:17.776Z,10.20
2019-02-27T21:32:42.784Z,10.20
2019-02-27T21:35:10.127Z,10.18
2019-02-27T21:37:37.752Z,10.06
2019-02-27T21:40:04.881Z,9.96
2019-02-27T21:42:32.819Z,10.04
2019-02-27T21:45:03.673Z,9.98
2019-02-27T21:47:29.161Z,9.96
2019-02-27T21:49:56.250Z,9.90
2019-02-27T21:52:24.270Z,9.91
2019-02-27T21:54:52.030Z,9.88
2019-02-27T21:57:19.082Z,9.87
2019-02-27T21:59:47.320Z,9.88
2019-02-27T22:02:14.557Z,9.88
2019-02-27T22:04:44.054Z,9.73
2019-02-27T22:07:11.695Z,9.78
2019-02-27T22:09:38.778Z,9.56
2019-02-27T22:12:07.049Z,9.55
2019-02-27T22:14:34.769Z,9.63
2019-02-27T22:17:05.064Z,9.61
2019-02-27T22:19:32.645Z,9.51
2019-02-27T22:22:01.618Z,9.55
2019-02-27T22:24:28.751Z,9.52
2019-02-27T22:26:56.155Z,9.42
2019-02-27T22:29:25.245Z,9.42
2019-02-27T22:31:54.367Z,9.42
2019-02-27T22:34:22.612Z,9.33
2019-02-27T22:36:51.088Z,9.03
2019-02-27T22:39:18.498Z,9.07
2019-02-27T22:41:45.682Z,8.85
2019-02-27T22:44:15.603Z,9.00
2019-02-27T22:46:42.718Z,8.93
2019-02-27T22:49:09.807Z,9.00
2019-02-27T22:51:37.160Z,9.02
2019-02-27T22:54:06.357Z,8.80
2019-02-27T22:56:34.144Z,8.67
2019-02-27T22:59:02.980Z,8.83
2019-02-27T23:01:59.614Z,8.70
2019-02-27T23:04:30.026Z,8.62
2019-02-27T23:06:56.529Z,8.50
2019-02-27T23:09:26.491Z,8.50
2019-02-27T23:11:53.886Z,8.58
2019-02-27T23:14:21.358Z,8.42
2019-02-27T23:16:48.578Z,8.58
2019-02-27T23:19:15.962Z,8.47
2019-02-27T23:21:43.175Z,8.48
2019-02-27T23:24:11.274Z,8.25
2019-02-27T23:26:39.659Z,8.35
2019-02-27T23:29:07.554Z,8.36
2019-02-27T23:31:34.794Z,8.16
2019-02-27T23:34:02.057Z,8.15
2019-02-27T23:36:30.409Z,8.27
2019-02-27T23:38:58.103Z,8.23
2019-02-27T23:41:26.116Z,8.28
2019-02-27T23:43:53.191Z,8.16
2019-02-27T23:46:20.377Z,8.23
2019-02-27T23:48:47.480Z,8.02
2019-02-27T23:51:16.747Z,8.23
2019-02-27T23:53:43.624Z,8.19
2019-02-27T23:56:10.724Z,8.01
2019-02-27T23:58:37.968Z,7.96
